sensor_id;sensor_type;location;lat;lon;timestamp;temperature;humidity
19864;DHT22;10094;48.820;9.226;2023-03-03T00:03:01;3.10;99.90
19864;DHT22;10094;48.820;9.226;2023-03-03T00:09:45;3.00;99.90
19864;DHT22;10094;48.820;9.226;2023-03-03T00:16:36;2.90;99.90
19864;DHT22;10094;48.820;9.226;2023-03-03T00:23:35;2.80;99.90
19864;DHT22;10094;48.820;9.226;2023-03-03T00:30:27;2.70;99.90
19864;DHT22;10094;48.820;9.226;2023-03-03T00:44:31;2.60;99.90
19864;DHT22;10094;48.820;9.226;2023-03-03T00:51:29;2.50;99.90
19864;DHT22;10094;48.820;9.226;2023-03-03T00:58:12;2.40;99.90
19864;DHT22;10094;48.820;9.226;2023-03-03T01:04:58;2.30;99.90
19864;DHT22;10094;48.820;9.226;2023-03-03T01:11:41;2.60;99.90
19864;DHT22;10094;48.820;9.226;2023-03-03T01:18:23;2.20;99.90
19864;DHT22;10094;48.820;9.226;2023-03-03T01:25:06;2.10;99.90
19864;DHT22;10094;48.820;9.226;2023-03-03T01:31:49;2.10;99.90
19864;DHT22;10094;48.820;9.226;2023-03-03T01:38:34;1.90;99.90
19864;DHT22;10094;48.820;9.226;2023-03-03T01:45:24;1.90;99.90
19864;DHT22;10094;48.820;9.226;2023-03-03T01:52:14;1.80;99.90
19864;DHT22;10094;48.820;9.226;2023-03-03T01:59:04;1.80;99.90
19864;DHT22;10094;48.820;9.226;2023-03-03T02:05:49;1.60;99.90
19864;DHT22;10094;48.820;9.226;2023-03-03T02:12:38;1.50;99.90
19864;DHT22;10094;48.820;9.226;2023-03-03T02:26:13;1.50;99.90
19864;DHT22;10094;48.820;9.226;2023-03-03T02:32:56;1.50;99.90
19864;DHT22;10094;48.820;9.226;2023-03-03T02:39:39;1.50;99.90
19864;DHT22;10094;48.820;9.226;2023-03-03T02:46:21;1.50;99.90
19864;DHT22;10094;48.820;9.226;2023-03-03T02:53:04;1.50;99.90
19864;DHT22;10094;48.820;9.226;2023-03-03T02:59:46;1.50;99.90
19864;DHT22;10094;48.820;9.226;2023-03-03T03:06:31;1.70;99.90
19864;DHT22;10094;48.820;9.226;2023-03-03T03:13:14;1.90;99.90
19864;DHT22;10094;48.820;9.226;2023-03-03T03:19:58;1.90;99.90
19864;DHT22;10094;48.820;9.226;2023-03-03T03:26:41;2.10;99.90
19864;DHT22;10094;48.820;9.226;2023-03-03T03:33:24;1.70;99.90
19864;DHT22;10094;48.820;9.226;2023-03-03T03:40:10;1.60;99.90
19864;DHT22;10094;48.820;9.226;2023-03-03T03:46:53;1.80;99.90
19864;DHT22;10094;48.820;9.226;2023-03-03T03:53:36;1.90;99.90
19864;DHT22;10094;48.820;9.226;2023-03-03T04:00:18;1.90;99.90
19864;DHT22;10094;48.820;9.226;2023-03-03T04:07:08;1.90;99.90
19864;DHT22;10094;48.820;9.226;2023-03-03T04:13:53;2.00;99.90
19864;DHT22;10094;48.820;9.226;2023-03-03T04:20:36;2.00;99.90
19864;DHT22;10094;48.820;9.226;2023-03-03T04:27:18;2.10;99.90
19864;DHT22;10094;48.820;9.226;2023-03-03T04:34:01;2.20;99.90
19864;DHT22;10094;48.820;9.226;2023-03-03T04:40:44;2.10;99.90
19864;DHT22;10094;48.820;9.226;2023-03-03T04:47:27;2.20;99.90
19864;DHT22;10094;48.820;9.226;2023-03-03T04:54:10;2.20;99.90
19864;DHT22;10094;48.820;9.226;2023-03-03T05:00:54;2.10;99.90
19864;DHT22;10094;48.820;9.226;2023-03-03T05:07:39;2.30;99.90
19864;DHT22;10094;48.820;9.226;2023-03-03T05:14:22;2.40;99.90
19864;DHT22;10094;48.820;9.226;2023-03-03T05:21:04;2.50;99.90
19864;DHT22;10094;48.820;9.226;2023-03-03T05:27:47;2.50;99.90
19864;DHT22;10094;48.820;9.226;2023-03-03T05:34:29;2.50;99.90
19864;DHT22;10094;48.820;9.226;2023-03-03T05:41:11;2.60;99.90
19864;DHT22;10094;48.820;9.226;2023-03-03T05:47:54;2.60;99.90
19864;DHT22;10094;48.820;9.226;2023-03-03T05:54:36;2.60;99.90
19864;DHT22;10094;48.820;9.226;2023-03-03T06:01:19;2.70;99.90
19864;DHT22;10094;48.820;9.226;2023-03-03T06:08:02;2.80;99.90
19864;DHT22;10094;48.820;9.226;2023-03-03T06:14:44;3.00;99.90
19864;DHT22;10094;48.820;9.226;2023-03-03T06:21:26;3.00;99.90
19864;DHT22;10094;48.820;9.226;2023-03-03T06:28:09;2.90;99.90
19864;DHT22;10094;48.820;9.226;2023-03-03T06:34:51;3.10;99.90
19864;DHT22;10094;48.820;9.226;2023-03-03T06:41:33;3.20;99.90
19864;DHT22;10094;48.820;9.226;2023-03-03T06:48:16;3.10;99.90
19864;DHT22;10094;48.820;9.226;2023-03-03T06:55:00;3.40;99.90
19864;DHT22;10094;48.820;9.226;2023-03-03T07:01:44;3.40;99.90
19864;DHT22;10094;48.820;9.226;2023-03-03T07:08:30;3.60;99.90
19864;DHT22;10094;48.820;9.226;2023-03-03T07:22:15;3.70;99.90
19864;DHT22;10094;48.820;9.226;2023-03-03T07:29:21;4.00;99.90
19864;DHT22;10094;48.820;9.226;2023-03-03T07:36:17;4.30;99.90
19864;DHT22;10094;48.820;9.226;2023-03-03T07:43:24;4.60;99.90
19864;DHT22;10094;48.820;9.226;2023-03-03T07:50:15;4.90;99.90
19864;DHT22;10094;48.820;9.226;2023-03-03T07:57:22;5.10;99.90
19864;DHT22;10094;48.820;9.226;2023-03-03T08:04:14;5.50;99.90
19864;DHT22;10094;48.820;9.226;2023-03-03T08:10:59;5.60;99.90
19864;DHT22;10094;48.820;9.226;2023-03-03T08:17:42;6.00;99.90
19864;DHT22;10094;48.820;9.226;2023-03-03T08:24:25;6.10;99.90
19864;DHT22;10094;48.820;9.226;2023-03-03T08:31:07;7.40;99.90
19864;DHT22;10094;48.820;9.226;2023-03-03T08:38:04;10.90;95.10
19864;DHT22;10094;48.820;9.226;2023-03-03T08:44:46;12.50;91.00
19864;DHT22;10094;48.820;9.226;2023-03-03T08:51:29;12.90;87.50
19864;DHT22;10094;48.820;9.226;2023-03-03T08:58:11;13.40;85.10
19864;DHT22;10094;48.820;9.226;2023-03-03T09:04:54;13.90;82.10
19864;DHT22;10094;48.820;9.226;2023-03-03T09:11:36;14.40;82.30
19864;DHT22;10094;48.820;9.226;2023-03-03T09:18:36;15.50;79.50
19864;DHT22;10094;48.820;9.226;2023-03-03T09:25:26;13.60;81.50
19864;DHT22;10094;48.820;9.226;2023-03-03T09:32:33;12.60;84.30
19864;DHT22;10094;48.820;9.226;2023-03-03T09:39:20;12.00;88.30
19864;DHT22;10094;48.820;9.226;2023-03-03T09:53:41;12.10;87.90
19864;DHT22;10094;48.820;9.226;2023-03-03T10:00:34;12.90;83.80
19864;DHT22;10094;48.820;9.226;2023-03-03T10:07:43;12.80;85.20
19864;DHT22;10094;48.820;9.226;2023-03-03T10:21:59;13.30;83.40
19864;DHT22;10094;48.820;9.226;2023-03-03T10:28:56;12.80;83.70
19864;DHT22;10094;48.820;9.226;2023-03-03T10:36:32;12.00;87.80
19864;DHT22;10094;48.820;9.226;2023-03-03T10:43:24;11.50;91.00
19864;DHT22;10094;48.820;9.226;2023-03-03T10:50:26;11.30;90.80
19864;DHT22;10094;48.820;9.226;2023-03-03T11:11:49;11.30;86.30
19864;DHT22;10094;48.820;9.226;2023-03-03T11:25:52;10.50;90.70
19864;DHT22;10094;48.820;9.226;2023-03-03T11:32:40;9.80;91.60
19864;DHT22;10094;48.820;9.226;2023-03-03T11:39:24;10.10;90.70
19864;DHT22;10094;48.820;9.226;2023-03-03T11:46:19;10.10;91.00
19864;DHT22;10094;48.820;9.226;2023-03-03T12:00:15;10.00;91.30
19864;DHT22;10094;48.820;9.226;2023-03-03T12:14:41;11.10;90.60
19864;DHT22;10094;48.820;9.226;2023-03-03T12:21:47;11.80;86.90
19864;DHT22;10094;48.820;9.226;2023-03-03T12:28:43;11.00;88.80
19864;DHT22;10094;48.820;9.226;2023-03-03T12:35:39;10.30;91.20
19864;DHT22;10094;48.820;9.226;2023-03-03T12:42:52;10.30;90.60
19864;DHT22;10094;48.820;9.226;2023-03-03T12:50:02;10.50;91.40
19864;DHT22;10094;48.820;9.226;2023-03-03T12:56:57;10.60;90.50
19864;DHT22;10094;48.820;9.226;2023-03-03T13:24:28;10.80;90.20
19864;DHT22;10094;48.820;9.226;2023-03-03T13:31:20;10.40;90.70
19864;DHT22;10094;48.820;9.226;2023-03-03T13:38:03;10.50;90.80
19864;DHT22;10094;48.820;9.226;2023-03-03T13:44:49;10.10;91.00
19864;DHT22;10094;48.820;9.226;2023-03-03T14:13:08;10.60;90.80
19864;DHT22;10094;48.820;9.226;2023-03-03T14:19:30;10.70;91.00
19864;DHT22;10094;48.820;9.226;2023-03-03T14:26:14;10.90;90.50
19864;DHT22;10094;48.820;9.226;2023-03-03T14:40:13;10.80;90.10
19864;DHT22;10094;48.820;9.226;2023-03-03T14:47:04;10.80;90.50
19864;DHT22;10094;48.820;9.226;2023-03-03T14:53:56;10.90;90.70
19864;DHT22;10094;48.820;9.226;2023-03-03T15:00:39;11.00;90.70
19864;DHT22;10094;48.820;9.226;2023-03-03T15:07:35;11.10;90.30
19864;DHT22;10094;48.820;9.226;2023-03-03T15:14:20;10.90;90.70
19864;DHT22;10094;48.820;9.226;2023-03-03T15:21:12;10.90;90.60
19864;DHT22;10094;48.820;9.226;2023-03-03T15:28:20;10.90;91.10
19864;DHT22;10094;48.820;9.226;2023-03-03T15:35:24;10.60;91.20
19864;DHT22;10094;48.820;9.226;2023-03-03T15:42:26;10.60;91.10
19864;DHT22;10094;48.820;9.226;2023-03-03T16:17:12;10.40;91.90
19864;DHT22;10094;48.820;9.226;2023-03-03T16:24:07;10.20;92.30
19864;DHT22;10094;48.820;9.226;2023-03-03T16:31:12;10.10;92.50
19864;DHT22;10094;48.820;9.226;2023-03-03T16:37:59;10.00;92.80
19864;DHT22;10094;48.820;9.226;2023-03-03T16:45:08;10.20;93.30
19864;DHT22;10094;48.820;9.226;2023-03-03T16:52:02;9.90;93.90
19864;DHT22;10094;48.820;9.226;2023-03-03T17:05:46;9.40;96.00
19864;DHT22;10094;48.820;9.226;2023-03-03T17:20:03;8.80;97.70
19864;DHT22;10094;48.820;9.226;2023-03-03T17:34:09;8.30;99.60
19864;DHT22;10094;48.820;9.226;2023-03-03T17:48:06;7.90;99.90
19864;DHT22;10094;48.820;9.226;2023-03-03T18:09:04;7.10;99.90
19864;DHT22;10094;48.820;9.226;2023-03-03T18:15:59;7.00;99.90
19864;DHT22;10094;48.820;9.226;2023-03-03T18:22:53;6.80;99.90
19864;DHT22;10094;48.820;9.226;2023-03-03T18:29:36;6.60;99.90
19864;DHT22;10094;48.820;9.226;2023-03-03T18:50:34;6.30;99.90
19864;DHT22;10094;48.820;9.226;2023-03-03T18:57:17;5.90;99.90
19864;DHT22;10094;48.820;9.226;2023-03-03T19:04:16;5.60;99.90
19864;DHT22;10094;48.820;9.226;2023-03-03T19:11:00;5.70;99.90
19864;DHT22;10094;48.820;9.226;2023-03-03T19:17:47;5.70;99.90
19864;DHT22;10094;48.820;9.226;2023-03-03T19:24:32;5.80;99.90
19864;DHT22;10094;48.820;9.226;2023-03-03T19:31:27;5.80;99.90
19864;DHT22;10094;48.820;9.226;2023-03-03T19:38:15;5.80;99.90
19864;DHT22;10094;48.820;9.226;2023-03-03T19:45:13;5.80;99.90
19864;DHT22;10094;48.820;9.226;2023-03-03T20:06:38;5.80;99.90
19864;DHT22;10094;48.820;9.226;2023-03-03T20:13:28;5.70;99.90
19864;DHT22;10094;48.820;9.226;2023-03-03T20:27:22;5.40;99.90
19864;DHT22;10094;48.820;9.226;2023-03-03T20:34:13;5.30;99.90
19864;DHT22;10094;48.820;9.226;2023-03-03T20:55:34;4.90;99.90
19864;DHT22;10094;48.820;9.226;2023-03-03T21:09:35;4.70;99.90
19864;DHT22;10094;48.820;9.226;2023-03-03T21:23:02;4.60;99.90
19864;DHT22;10094;48.820;9.226;2023-03-03T21:30:01;4.50;99.90
19864;DHT22;10094;48.820;9.226;2023-03-03T21:36:46;4.40;99.90
19864;DHT22;10094;48.820;9.226;2023-03-03T21:43:40;4.30;99.90
19864;DHT22;10094;48.820;9.226;2023-03-03T21:50:23;4.20;99.90
19864;DHT22;10094;48.820;9.226;2023-03-03T21:57:07;4.10;99.90
19864;DHT22;10094;48.820;9.226;2023-03-03T22:03:49;4.00;99.90
19864;DHT22;10094;48.820;9.226;2023-03-03T22:10:32;3.90;99.90
19864;DHT22;10094;48.820;9.226;2023-03-03T22:17:14;3.80;99.90
19864;DHT22;10094;48.820;9.226;2023-03-03T22:23:57;3.70;99.90
19864;DHT22;10094;48.820;9.226;2023-03-03T22:30:39;3.60;99.90
19864;DHT22;10094;48.820;9.226;2023-03-03T22:37:22;3.60;99.90
19864;DHT22;10094;48.820;9.226;2023-03-03T22:44:04;3.50;99.90
19864;DHT22;10094;48.820;9.226;2023-03-03T22:50:46;3.40;99.90
19864;DHT22;10094;48.820;9.226;2023-03-03T22:57:29;3.30;99.90
19864;DHT22;10094;48.820;9.226;2023-03-03T23:04:12;3.20;99.90
19864;DHT22;10094;48.820;9.226;2023-03-03T23:10:54;3.30;99.90
19864;DHT22;10094;48.820;9.226;2023-03-03T23:17:36;3.30;99.90
19864;DHT22;10094;48.820;9.226;2023-03-03T23:24:19;3.30;99.90
19864;DHT22;10094;48.820;9.226;2023-03-03T23:31:01;3.20;99.90
19864;DHT22;10094;48.820;9.226;2023-03-03T23:37:44;3.10;99.90
19864;DHT22;10094;48.820;9.226;2023-03-03T23:44:26;3.00;99.90
19864;DHT22;10094;48.820;9.226;2023-03-03T23:51:09;2.90;99.90
19864;DHT22;10094;48.820;9.226;2023-03-03T23:57:51;2.90;99.90
